Data for 08/16/2014

Time Sea-Level Adjusted Pressure Absolute Pressure Temperature Relative Humidity Dew Point   
(mb) (inHg) (mb) (inHg) (C) (F) (%) (C) (F)
00:05 1022 30.18 852 25.16 15.6 60 74 11 51.8
00:10 1022 30.18 852 25.16 15.4 59.7 76 11.2 52.1
00:15 1022 30.18 851 25.13 15.3 59.5 77 11.2 52.2
00:20 1022 30.18 851 25.13 15.2 59.3 78 11.4 52.5
00:25 1022 30.18 851 25.13 15 59 79 11.4 52.6
00:30 1022 30.18 851 25.13 15 59 78 11.2 52.2
00:35 1022 30.18 851 25.13 14.9 58.8 78 11.1 52
00:40 1022 30.18 851 25.13 14.7 58.5 78 10.9 51.7
00:45 1022 30.18 851 25.13 14.6 58.3 78 11 51.7
00:50 1022 30.18 851 25.13 14.6 58.2 78 10.9 51.6
00:55 1022 30.18 851 25.13 14.6 58.3 78 10.9 51.6
01:00 1022 30.18 851 25.13 14.7 58.4 78 10.9 51.6
01:05 1022 30.18 851 25.13 14.8 58.6 78 10.9 51.6
01:10 1022 30.18 851 25.13 14.8 58.6 77 10.9 51.6
01:15 1022 30.18 851 25.13 14.9 58.7 77 10.9 51.7
01:20 1022 30.18 851 25.13 14.9 58.9 77 10.9 51.6
01:25 1022 30.18 851 25.13 15 59 76 10.9 51.5
01:30 1022 30.18 851 25.13 15.1 59.2 76 10.9 51.6
01:35 1022 30.18 851 25.13 15.1 59.2 76 10.9 51.7
01:40 1022 30.18 851 25.13 15.2 59.3 76 10.9 51.6
01:45 1022 30.18 851 25.13 15.1 59.2 76 10.9 51.6
01:50 1022 30.18 851 25.13 15.1 59.2 76 10.9 51.5
01:55 1022 30.18 851 25.13 15.1 59.1 76 10.9 51.6
02:00 1022 30.18 851 25.13 15.1 59.2 76 10.9 51.7
02:05 1022 30.18 851 25.13 14.9 58.8 77 11 51.7
02:10 1022 30.18 851 25.13 14.7 58.4 78 11 51.8
02:15 1022 30.18 851 25.13 14.4 58 79 11 51.7
02:20 1022 30.18 851 25.13 14.2 57.6 80 10.8 51.4
02:25 1022 30.18 851 25.13 14.2 57.5 80 10.9 51.5
02:30 1022 30.18 851 25.13 14 57.2 82 10.9 51.7
02:35 1022 30.18 851 25.13 13.7 56.7 83 10.8 51.5
02:40 1022 30.18 851 25.13 13.7 56.6 83 10.8 51.4
02:45 1022 30.18 851 25.13 13.6 56.4 83 10.8 51.4
02:50 1022 30.18 851 25.13 13.6 56.4 83 10.7 51.2
02:55 1022 30.18 851 25.13 13.5 56.4 83 10.7 51.2
03:00 1022 30.18 851 25.13 13.5 56.4 83 10.7 51.2
03:05 1022 30.18 851 25.13 13.5 56.3 83 10.7 51.3
03:10 1022 30.18 851 25.13 13.3 56 83 10.6 51
03:15 1022 30.18 851 25.13 13.2 55.7 84 10.5 50.9
03:20 1022 30.18 851 25.13 13.2 55.7 83 10.4 50.7
03:25 1022 30.18 851 25.13 13.1 55.6 84 10.4 50.7
03:30 1022 30.18 851 25.13 12.9 55.2 84 10.3 50.5
03:35 1022 30.18 851 25.13 12.7 54.9 84 10.1 50.2
03:40 1022 30.18 851 25.13 12.6 54.7 84 10 49.9
03:45 1022 30.18 851 25.13 12.6 54.7 83 9.9 49.8
03:50 1022 30.18 851 25.13 12.5 54.4 83 9.7 49.5
03:55 1022 30.18 851 25.13 12.4 54.2 84 9.7 49.5
04:00 1022 30.18 851 25.13 12.2 53.9 85 9.7 49.4
04:05 1022 30.18 851 25.13 11.9 53.5 85 9.5 49.1
04:10 1022 30.18 851 25.13 11.7 53 87 9.5 49.1
04:15 1022 30.18 851 25.13 11.6 52.9 86 9.4 48.9
04:20 1022 30.18 851 25.13 11.8 53.2 85 9.4 48.9
04:25 1022 30.18 851 25.13 11.9 53.5 84 9.4 48.9
04:30 1022 30.18 851 25.13 11.9 53.4 85 9.5 49.1
04:35 1022 30.18 851 25.13 11.9 53.5 84 9.3 48.8
04:40 1022 30.18 851 25.13 11.7 53.1 85 9.3 48.8
04:45 1022 30.18 851 25.13 11.6 52.9 84 9.1 48.4
04:50 1022 30.18 851 25.13 11.8 53.2 84 9.1 48.5
04:55 1022 30.18 851 25.13 11.6 52.9 84 9.1 48.3
05:00 1022 30.18 851 25.13 11.4 52.5 85 9 48.1
05:05 1022 30.18 851 25.13 11.4 52.5 85 8.9 48
05:10 1022 30.18 851 25.13 11.4 52.5 85 9 48.1
05:15 1022 30.18 851 25.13 11.3 52.4 84 8.8 47.8
05:20 1022 30.18 851 25.13 11.4 52.4 85 8.9 47.9
05:25 1022 30.18 851 25.13 11.4 52.5 84 8.9 48
05:30 1022 30.18 851 25.13 11.5 52.7 85 9 48.2
05:35 1022 30.18 851 25.13 11.4 52.4 86 9 48.3
05:40 1022 30.18 851 25.13 11.3 52.4 85 9 48.2
05:45 1022 30.18 851 25.13 11.5 52.6 85 9 48.3
05:50 1022 30.18 851 25.13 11.6 52.9 84 9 48.2
05:55 1022 30.18 851 25.13 11.7 53 84 9 48.2
06:00 1022 30.18 851 25.13 11.9 53.4 83 9.1 48.4
06:05 1022 30.18 851 25.13 12 53.5 82 9 48.2
06:10 1022 30.18 851 25.13 12 53.7 82 9 48.2
06:15 1022 30.18 851 25.13 12.2 54 81 9.1 48.4
06:20 1022 30.18 851 25.13 12.4 54.3 81 9.2 48.5
06:25 1022 30.18 851 25.13 12.4 54.3 80 9.1 48.4
06:30 1022 30.18 851 25.13 12.7 54.8 79 9.2 48.5
06:35 1022 30.18 851 25.13 12.9 55.2 78 9.2 48.6
06:40 1022 30.18 851 25.13 13.1 55.6 77 9.2 48.5
06:45 1022 30.18 851 25.13 13.4 56.1 75 9.2 48.5
06:50 1022 30.18 851 25.13 13.7 56.7 75 9.5 49.1
06:55 1022 30.18 851 25.13 13.7 56.6 76 9.5 49.2
07:00 1022 30.18 851 25.13 13.4 56.1 76 9.3 48.8
07:05 1022 30.18 851 25.13 13.3 55.9 76 9.2 48.6
07:10 1022 30.18 852 25.16 13.4 56.1 77 9.4 48.9
07:15 1023 30.21 852 25.16 13.7 56.6 76 9.6 49.2
07:20 1023 30.21 852 25.16 13.9 57 76 9.8 49.6
07:25 1023 30.21 852 25.16 14 57.2 77 10.1 50.2
07:30 1023 30.21 852 25.16 14 57.2 78 10.2 50.3
07:35 1023 30.21 852 25.16 14.1 57.3 75 9.8 49.7
07:40 1023 30.21 852 25.16 14.2 57.5 77 10.3 50.6
07:45 1023 30.21 852 25.16 13.8 56.8 78 10 50.1
07:50 1023 30.21 852 25.16 13.6 56.5 78 9.9 49.7
07:55 1023 30.21 852 25.16 13.7 56.6 78 9.8 49.7
08:00 1023 30.21 852 25.16 13.4 56.1 79 9.8 49.6
08:05 1023 30.21 852 25.16 13.3 55.9 79 9.8 49.6
08:10 1023 30.21 852 25.16 13.5 56.3 78 9.8 49.6
08:15 1023 30.21 852 25.16 13.8 56.8 78 10 50
08:20 1023 30.21 852 25.16 13.7 56.7 78 10.1 50.1
08:25 1023 30.21 852 25.16 13.7 56.7 78 9.9 49.9
08:30 1023 30.21 852 25.16 13.7 56.7 79 10.1 50.3
08:35 1023 30.21 852 25.16 13.9 56.9 78 10.1 50.3
08:40 1023 30.21 852 25.16 14 57.3 78 10.3 50.5
08:45 1023 30.21 852 25.16 14.5 58 77 10.4 50.8
08:50 1023 30.21 852 25.16 15 58.9 74 10.4 50.7
08:55 1023 30.21 852 25.16 15.2 59.3 74 10.6 51.1
09:00 1023 30.21 852 25.16 15.5 60 70 10.1 50.2
09:05 1023 30.21 852 25.16 16.7 62.1 66 10.3 50.6
09:10 1023 30.21 852 25.16 17.1 62.8 67 11 51.8
09:15 1023 30.21 852 25.16 16.5 61.6 68 10.6 51.1
09:20 1023 30.21 852 25.16 17.1 62.7 65 10.6 51
09:25 1022 30.18 852 25.16 17.3 63.1 63 10.3 50.6
09:30 1022 30.18 852 25.16 17.5 63.4 63 10.4 50.7
09:35 1022 30.18 852 25.16 17.9 64.2 62 10.6 51.1
09:40 1022 30.18 852 25.16 18.5 65.2 57 9.9 49.8
09:45 1022 30.18 852 25.16 18.4 65 60 10.4 50.8
09:50 1022 30.18 852 25.16 18.5 65.2 56 9.7 49.5
09:55 1022 30.18 852 25.16 18.9 66.1 53 9.3 48.7
10:00 1022 30.18 852 25.16 19.9 67.9 51 9.5 49.2
10:05 1022 30.18 852 25.16 20.5 68.9 50 9.9 49.8
10:10 1022 30.18 852 25.16 20.3 68.6 50 9.8 49.7
10:15 1022 30.18 852 25.16 21 69.7 48 9.8 49.6
10:20 1022 30.18 851 25.13 20.5 68.9 47 8.8 47.9
10:25 1022 30.18 851 25.13 21.1 70 46 9.3 48.7
10:30 1022 30.18 851 25.13 22 71.5 43 8.9 48.1
10:35 1022 30.18 851 25.13 22.2 72 45 9.9 49.8
10:40 1022 30.18 851 25.13 21.5 70.7 46 9.6 49.3
10:45 1022 30.18 851 25.13 21.3 70.3 46 9.5 49.1
10:50 1022 30.18 851 25.13 21.2 70.2 47 9.5 49.1
10:55 1022 30.18 851 25.13 21 69.8 48 9.6 49.3
11:00 1022 30.18 851 25.13 21.4 70.5 45 9.1 48.5
11:05 1022 30.18 851 25.13 22.4 72.4 42 8.9 48
11:10 1022 30.18 851 25.13 23 73.5 39 8.6 47.4
11:15 1022 30.18 851 25.13 23.2 73.8 39 8.8 47.9
11:20 1022 30.18 851 25.13 22.9 73.3 41 9 48.2
11:25 1022 30.18 851 25.13 22.9 73.1 40 8.8 47.9
11:30 1022 30.18 851 25.13 23.6 74.5 39 9 48.2
11:35 1022 30.18 851 25.13 23.1 73.5 40 9 48.2
11:40 1022 30.18 851 25.13 23.5 74.3 38 8.7 47.7
11:45 1021 30.15 851 25.13 24.1 75.3 37 8.8 47.9
11:50 1021 30.15 851 25.13 24.4 75.9 36 8.4 47.1
11:55 1021 30.15 851 25.13 24.6 76.2 37 9 48.2
12:00 1021 30.15 850 25.1 24.3 75.8 37 8.9 48.1
12:05 1021 30.15 850 25.1 24.4 75.9 36 8.6 47.4
12:10 1021 30.15 850 25.1 24.6 76.3 35 8.5 47.3
12:15 1021 30.15 850 25.1 23.9 75.1 39 9.3 48.8
12:20 1021 30.15 851 25.13 23.2 73.8 38 8.4 47.1
12:25 1021 30.15 851 25.13 23.3 74 39 8.7 47.6
12:30 1021 30.15 851 25.13 24.1 75.4 36 8.3 47
12:35 1021 30.15 851 25.13 24.1 75.5 37 8.6 47.5
12:40 1021 30.15 850 25.1 24.4 76 37 8.8 47.9
12:45 1021 30.15 850 25.1 23.8 74.9 37 8.4 47.1
12:50 1021 30.15 850 25.1 23 73.3 39 8.3 47
12:55 1021 30.15 850 25.1 23.4 74.2 37 8.3 46.9
13:00 1021 30.15 850 25.1 23.6 74.6 37 8.3 47
13:05 1021 30.15 850 25.1 23.7 74.6 40 9.4 49
13:10 1021 30.15 850 25.1 23.5 74.2 40 9.3 48.8
13:15 1021 30.15 850 25.1 22.9 73.2 40 8.9 48
13:20 1021 30.15 850 25.1 23.5 74.3 40 9.2 48.5
13:25 1021 30.15 850 25.1 24 75.3 37 8.7 47.7
13:30 1021 30.15 850 25.1 23.3 74 39 8.8 47.8
13:35 1021 30.15 850 25.1 23 73.5 38 8.1 46.6
13:40 1021 30.15 850 25.1 23.3 73.9 37 7.8 46.1
13:45 1021 30.15 850 25.1 24.4 75.9 33 7.5 45.5
13:50 1021 30.15 850 25.1 24.2 75.5 35 7.8 46.1
13:55 1021 30.15 850 25.1 24.5 76 33 7.4 45.4
14:00 1021 30.15 850 25.1 24.7 76.5 34 7.8 46.1
14:05 1021 30.15 850 25.1 24.8 76.6 33 7.4 45.4
14:10 1021 30.15 850 25.1 24.7 76.4 34 7.8 46.1
14:15 1021 30.15 850 25.1 24.8 76.7 33 7.7 45.8
14:20 1021 30.15 850 25.1 24 75.1 36 8.2 46.8
14:25 1021 30.15 850 25.1 24.2 75.6 34 7.5 45.5
14:30 1021 30.15 850 25.1 24.9 76.9 33 7.8 46.1
14:35 1021 30.15 850 25.1 24.9 76.8 32 7.3 45.2
14:40 1021 30.15 850 25.1 24.9 76.8 32 7.5 45.4
14:45 1021 30.15 850 25.1 24.7 76.4 32 7.3 45.1
14:50 1021 30.15 850 25.1 25.2 77.3 32 7.4 45.3
14:55 1021 30.15 850 25.1 25.1 77.2 31 6.9 44.4
15:00 1021 30.15 850 25.1 24.5 76.1 32 6.9 44.5
15:05 1021 30.15 850 25.1 24.9 76.7 30 6.6 43.8
15:10 1021 30.15 850 25.1 25.2 77.3 31 6.9 44.5
15:15 1021 30.15 850 25.1 25 77.1 30 6.4 43.5
15:20 1021 30.15 850 25.1 25.5 77.8 29 6.3 43.4
15:25 1021 30.15 850 25.1 25.3 77.5 29 6 42.8
15:30 1021 30.15 850 25.1 25.5 77.9 28 6.2 43.1
15:35 1021 30.15 850 25.1 25.4 77.7 29 6.2 43.2
15:40 1021 30.15 850 25.1 25.4 77.7 29 6.2 43.2
15:45 1021 30.15 850 25.1 25.4 77.8 29 6.2 43.1
15:50 1021 30.15 850 25.1 26.2 79.2 28 6.5 43.6
15:55 1021 30.15 850 25.1 25.4 77.7 29 6.5 43.7
16:00 1021 30.15 850 25.1 24.6 76.4 30 6.1 42.9
16:05 1021 30.15 850 25.1 24.9 76.8 29 6 42.8
16:10 1020 30.12 850 25.1 24.8 76.7 30 6.3 43.4
16:15 1021 30.15 850 25.1 25.4 77.6 29 6.4 43.6
16:20 1020 30.12 850 25.1 25.6 78 28 6.2 43.1
16:25 1020 30.12 850 25.1 25.5 77.9 28 6 42.9
16:30 1020 30.12 850 25.1 25.2 77.3 29 6.2 43.1
16:35 1020 30.12 850 25.1 24.9 76.8 29 5.8 42.4
16:40 1020 30.12 850 25.1 25 76.9 27 5.1 41.2
16:45 1020 30.12 850 25.1 25.2 77.4 28 5.5 41.8
16:50 1020 30.12 850 25.1 25.4 77.7 28 5.8 42.4
16:55 1020 30.12 850 25.1 25.3 77.5 29 6 42.8
17:00 1020 30.12 850 25.1 24.5 76.1 29 5.3 41.6
17:05 1020 30.12 850 25.1 24.8 76.6 28 5.2 41.3
17:10 1020 30.12 850 25.1 24.7 76.5 28 5.2 41.3
17:15 1020 30.12 850 25.1 24.6 76.2 29 5.5 41.9
17:20 1020 30.12 850 25.1 24.8 76.6 28 5.5 41.9
17:25 1020 30.12 850 25.1 25 76.9 28 5.2 41.4
17:30 1020 30.12 850 25.1 25 77 28 5.6 42.1
17:35 1020 30.12 850 25.1 24.7 76.4 28 5.3 41.6
17:40 1020 30.12 850 25.1 24.3 75.7 28 4.7 40.5
17:45 1020 30.12 850 25.1 24.1 75.4 29 5.3 41.6
17:50 1020 30.12 850 25.1 23.8 74.8 30 5.2 41.3
17:55 1020 30.12 850 25.1 23.8 74.9 29 5.2 41.4
18:00 1020 30.12 850 25.1 23.7 74.6 30 5.1 41.2
18:05 1020 30.12 850 25.1 23.5 74.3 30 4.9 40.9
18:10 1020 30.12 850 25.1 23.5 74.3 30 5.2 41.4
18:15 1020 30.12 850 25.1 23.5 74.3 30 5.3 41.6
18:20 1020 30.12 850 25.1 23.6 74.4 29 4.9 40.9
18:25 1020 30.12 850 25.1 23.5 74.4 29 4.9 40.9
18:30 1020 30.12 850 25.1 23.4 74.1 29 4.5 40.1
18:35 1020 30.12 850 25.1 23.4 74 30 4.8 40.7
18:40 1020 30.12 850 25.1 23.3 74 30 4.9 40.8
18:45 1021 30.15 850 25.1 23.3 74 30 4.8 40.6
18:50 1021 30.15 850 25.1 23.2 73.8 30 4.9 40.9
18:55 1021 30.15 850 25.1 23 73.5 32 5.5 41.9
19:00 1021 30.15 850 25.1 22.8 73 32 5.2 41.4
19:05 1021 30.15 850 25.1 22.6 72.7 33 5.7 42.2
19:10 1021 30.15 850 25.1 22.5 72.5 33 5.7 42.3
19:15 1021 30.15 850 25.1 22.4 72.3 34 5.9 42.7
19:20 1021 30.15 850 25.1 22.3 72.1 34 5.8 42.4
19:25 1021 30.15 850 25.1 22.2 72 35 6.2 43.1
19:30 1021 30.15 850 25.1 22.1 71.7 34 5.7 42.2
19:35 1021 30.15 850 25.1 22 71.5 35 5.9 42.6
19:40 1021 30.15 850 25.1 21.8 71.3 33 5.2 41.4
19:45 1021 30.15 850 25.1 21.7 71 34 5.4 41.7
19:50 1021 30.15 850 25.1 21.2 70.1 41 7.5 45.6
19:55 1021 30.15 850 25.1 20.3 68.6 43 7.5 45.5
20:00 1021 30.15 850 25.1 20 68 47 8.5 47.3
20:05 1021 30.15 850 25.1 19.6 67.3 48 8.5 47.4
20:10 1021 30.15 850 25.1 19 66.2 51 8.6 47.5
20:15 1021 30.15 850 25.1 18.7 65.7 50 8.2 46.8
20:20 1021 30.15 850 25.1 18.6 65.5 50 8.1 46.6
20:25 1021 30.15 850 25.1 18.3 65 51 8.1 46.5
20:30 1021 30.15 850 25.1 18 64.4 52 8.1 46.6
20:35 1021 30.15 850 25.1 17.7 63.8 52 7.9 46.3
20:40 1021 30.15 850 25.1 17.5 63.5 52 7.8 46
20:45 1021 30.15 851 25.13 17.4 63.2 53 7.8 46.1
20:50 1021 30.15 851 25.13 17.4 63.3 53 7.7 45.9
20:55 1021 30.15 851 25.13 17.4 63.3 53 7.7 45.9
21:00 1021 30.15 851 25.13 17.2 63 52 7.5 45.5
21:05 1021 30.15 851 25.13 17.2 62.9 53 7.7 45.9
21:10 1021 30.15 851 25.13 17.1 62.8 53 7.6 45.6
21:15 1022 30.18 851 25.13 17 62.6 53 7.6 45.6
21:20 1022 30.18 851 25.13 16.9 62.5 54 7.8 46
21:25 1022 30.18 851 25.13 17 62.6 55 8.1 46.5
21:30 1022 30.18 851 25.13 16.8 62.2 55 7.7 45.9
21:35 1022 30.18 851 25.13 16.6 61.9 55 7.6 45.7
21:40 1022 30.18 851 25.13 16.6 61.8 55 7.7 45.9
21:45 1022 30.18 851 25.13 16.4 61.6 56 7.7 45.8
21:50 1022 30.18 851 25.13 16.3 61.4 57 8 46.3
21:55 1022 30.18 851 25.13 16.4 61.6 57 8.1 46.6
22:00 1022 30.18 851 25.13 16.5 61.7 55 7.7 45.8
22:05 1022 30.18 851 25.13 16.3 61.4 55 7.4 45.3
22:10 1022 30.18 851 25.13 16.2 61.2 56 7.5 45.4
22:15 1022 30.18 851 25.13 16.1 60.9 59 8.1 46.6
22:20 1022 30.18 851 25.13 15.4 59.7 62 8.1 46.6
22:25 1022 30.18 851 25.13 14.9 58.8 62 7.8 46.1
22:30 1022 30.18 851 25.13 14.9 58.9 63 7.9 46.2
22:35 1022 30.18 851 25.13 15.3 59.6 58 7.3 45.1
22:40 1022 30.18 851 25.13 15.5 59.8 57 7.2 44.9
22:45 1022 30.18 851 25.13 15.5 60 57 7.1 44.8
22:50 1022 30.18 851 25.13 15.6 60.1 57 7.2 45
22:55 1022 30.18 851 25.13 15.5 59.9 58 7.4 45.2
23:00 1022 30.18 851 25.13 15.4 59.8 62 8.2 46.7
23:05 1022 30.18 851 25.13 15.4 59.6 59 7.4 45.3
23:10 1022 30.18 851 25.13 15.3 59.5 58 7.2 45
23:15 1022 30.18 851 25.13 15.3 59.6 59 7.4 45.2
23:20 1022 30.18 851 25.13 15.3 59.6 58 7.2 45
23:25 1022 30.18 851 25.13 15.4 59.7 57 7.1 44.8
23:30 1022 30.18 851 25.13 15.4 59.7 58 7.1 44.9
23:35 1022 30.18 851 25.13 15.3 59.6 60 7.7 45.9
23:40 1022 30.18 851 25.13 15.4 59.8 63 8.4 47.2
23:45 1022 30.18 851 25.13 15.4 59.7 59 7.4 45.3
23:50 1022 30.18 851 25.13 15.1 59.1 59 7.3 45.1
23:55 1022 30.18 851 25.13 14.9 58.9 59 7.1 44.8
24:00 1022 30.18 851 25.13 14.9 58.8 60 7.2 44.9